createdAt,value
2018-08-04T00:02:54.974Z,101024.67
2018-08-04T00:07:58.591Z,101018.50
2018-08-04T00:13:02.158Z,101017.23
2018-08-04T00:18:06.418Z,101018.47
2018-08-04T00:23:10.059Z,101020.37
2018-08-04T00:28:13.806Z,101010.84
2018-08-04T00:33:29.856Z,101014.42
2018-08-04T00:38:33.452Z,101012.11
2018-08-04T00:43:37.074Z,101020.61
2018-08-04T00:48:40.695Z,101022.70
2018-08-04T00:53:44.307Z,101011.03
2018-08-04T00:58:48.071Z,101017.31
2018-08-04T01:03:51.714Z,101023.05
2018-08-04T01:08:55.272Z,101033.87
2018-08-04T01:13:58.857Z,101031.25
2018-08-04T01:19:02.402Z,101024.89
2018-08-04T01:24:06.023Z,101018.88
2018-08-04T01:29:09.820Z,101003.80
2018-08-04T01:34:13.457Z,101000.16
2018-08-04T01:39:28.217Z,100999.90
2018-08-04T01:44:31.843Z,100996.78
2018-08-04T01:49:35.656Z,101007.41
2018-08-04T01:54:39.259Z,101015.63
2018-08-04T01:59:42.810Z,101017.53
2018-08-04T02:04:46.372Z,101012.41
2018-08-04T02:09:49.946Z,101010.46
2018-08-04T02:14:53.546Z,101012.73
2018-08-04T02:19:57.155Z,101007.66
2018-08-04T02:25:00.848Z,101011.41
2018-08-04T02:30:06.089Z,101010.55
2018-08-04T02:35:09.711Z,101006.70
2018-08-04T02:40:13.421Z,101003.42
2018-08-04T02:45:17.022Z,100995.12
2018-08-04T02:50:20.549Z,100982.12
2018-08-04T02:55:24.146Z,100979.87
2018-08-04T03:00:28.059Z,100999.20
2018-08-04T03:05:31.833Z,100998.11
2018-08-04T03:10:35.360Z,101006.55
2018-08-04T03:15:39.082Z,101006.16
2018-08-04T03:20:42.821Z,101015.52
2018-08-04T03:25:47.260Z,101009.17
2018-08-04T03:30:51.072Z,101001.91
2018-08-04T03:35:55.014Z,100989.59
2018-08-04T03:40:58.590Z,100996.30
2018-08-04T03:46:05.643Z,100992.67
2018-08-04T03:51:09.186Z,100989.22
2018-08-04T03:56:12.828Z,100995.70
2018-08-04T04:01:16.483Z,100991.73
2018-08-04T04:06:20.206Z,100993.83
2018-08-04T04:11:24.741Z,100995.63
2018-08-04T04:16:28.349Z,100997.11
2018-08-04T04:21:32.488Z,100995.66
2018-08-04T04:26:36.135Z,100994.47
2018-08-04T04:31:39.695Z,100996.34
2018-08-04T04:36:43.362Z,100993.15
2018-08-04T04:41:47.949Z,100995.94
2018-08-04T04:46:52.120Z,100989.61
2018-08-04T04:51:55.762Z,100997.88
2018-08-04T04:56:59.375Z,100994.31
2018-08-04T05:02:02.998Z,101001.73
2018-08-04T05:07:06.969Z,101007.95
2018-08-04T05:12:10.534Z,101016.50
2018-08-04T05:17:14.988Z,101009.83
2018-08-04T05:22:19.081Z,101010.10
2018-08-04T05:27:22.617Z,101012.38
2018-08-04T05:32:26.284Z,101024.17
2018-08-04T05:37:29.971Z,101042.06
2018-08-04T05:42:34.036Z,101041.58
2018-08-04T05:47:37.596Z,101036.15
2018-08-04T05:52:41.432Z,101040.94
2018-08-04T05:57:45.144Z,101032.74
2018-08-04T06:02:48.737Z,101034.40
2018-08-04T06:07:52.496Z,101044.09
2018-08-04T06:12:56.203Z,101045.47
2018-08-04T06:17:59.737Z,101046.23
2018-08-04T06:23:03.357Z,101053.89
2018-08-04T06:28:07.234Z,101051.94
2018-08-04T06:33:10.898Z,101060.78
2018-08-04T06:38:15.953Z,101066.22
2018-08-04T06:43:19.566Z,101059.17
2018-08-04T06:48:23.110Z,101060.70
2018-08-04T06:53:26.751Z,101058.76
2018-08-04T06:58:30.350Z,101052.43
2018-08-04T07:03:33.956Z,101043.20
2018-08-04T07:08:37.799Z,101055.95
2018-08-04T07:13:41.408Z,101053.97
2018-08-04T07:18:45.030Z,101049.48
2018-08-04T07:23:49.458Z,101049.95
2018-08-04T07:28:56.184Z,101054.18
2018-08-04T07:33:59.866Z,101054.73
2018-08-04T07:39:04.308Z,101063.68
2018-08-04T07:44:07.848Z,101062.92
2018-08-04T07:49:12.735Z,101063.93
2018-08-04T07:54:16.380Z,101061.88
2018-08-04T07:59:21.319Z,101068.53
2018-08-04T08:04:24.893Z,101079.36
2018-08-04T08:09:28.413Z,101078.55
2018-08-04T08:14:32.238Z,101080.91
2018-08-04T08:19:36.808Z,101080.84
2018-08-04T08:24:40.450Z,101074.71
2018-08-04T08:29:44.902Z,101079.36
2018-08-04T08:34:48.624Z,101078.30
2018-08-04T08:39:52.324Z,101069.33
2018-08-04T08:44:55.877Z,101073.38
2018-08-04T08:49:59.459Z,101074.73
2018-08-04T08:55:03.077Z,101077.51
2018-08-04T09:00:13.398Z,101076.19
2018-08-04T09:05:19.540Z,101071.03
2018-08-04T09:10:23.100Z,101071.62
2018-08-04T09:15:27.503Z,101062.88
2018-08-04T09:20:31.061Z,101070.91
2018-08-04T09:25:36.477Z,101075.88
2018-08-04T09:30:40.020Z,101074.05
2018-08-04T09:35:43.629Z,101071.44
2018-08-04T09:40:47.297Z,101078.19
2018-08-04T09:45:50.914Z,101074.35
2018-08-04T09:50:54.439Z,101080.60
2018-08-04T09:55:58.216Z,101081.27
2018-08-04T10:01:06.973Z,101078.50
2018-08-04T10:06:10.602Z,101082.80
2018-08-04T10:11:14.250Z,101082.39
2018-08-04T10:16:17.893Z,101083.58
2018-08-04T10:21:22.261Z,101085.17
2018-08-04T10:26:25.972Z,101083.94
2018-08-04T10:31:29.492Z,101076.65
2018-08-04T10:36:33.093Z,101065.98
2018-08-04T10:41:36.882Z,101064.70
2018-08-04T10:46:42.214Z,101058.27
2018-08-04T10:51:45.938Z,101051.67
2018-08-04T10:56:49.509Z,101058.27
2018-08-04T11:01:53.245Z,101054.55
2018-08-04T11:06:57.781Z,101057.06
2018-08-04T11:12:01.342Z,101044.53
2018-08-04T11:17:04.942Z,101040.47
2018-08-04T11:22:08.672Z,101045.86
2018-08-04T11:27:12.337Z,101038.50
2018-08-04T11:32:15.835Z,101039.65
2018-08-04T11:37:19.527Z,101044.89
2018-08-04T11:42:23.095Z,101037.20
2018-08-04T11:47:26.753Z,101031.53
2018-08-04T11:52:30.293Z,101032.95
2018-08-04T11:57:33.987Z,101036.00
2018-08-04T12:02:37.542Z,101026.72
2018-08-04T12:07:41.225Z,101022.98
2018-08-04T12:12:44.745Z,101013.39
2018-08-04T12:17:50.522Z,101013.53
2018-08-04T12:22:54.177Z,101011.92
2018-08-04T12:27:57.733Z,101012.52
2018-08-04T12:33:01.388Z,101006.73
2018-08-04T12:38:05.046Z,101005.44
2018-08-04T12:43:08.625Z,100998.44
2018-08-04T12:48:12.255Z,100994.05
2018-08-04T12:53:15.769Z,100985.06
2018-08-04T12:58:19.640Z,100985.86
2018-08-04T13:03:23.330Z,100987.67
2018-08-04T13:08:26.886Z,100985.98
2018-08-04T13:13:30.349Z,100981.27
2018-08-04T13:18:33.930Z,100982.67
2018-08-04T13:23:37.418Z,100981.67
2018-08-04T13:28:41.069Z,100973.89
2018-08-04T13:33:44.994Z,100974.97
2018-08-04T13:38:48.681Z,100973.28
2018-08-04T13:43:52.265Z,100983.47
2018-08-04T13:48:55.835Z,100972.56
2018-08-04T13:53:59.406Z,100971.77
2018-08-04T13:59:03.432Z,100976.93
2018-08-04T14:04:07.347Z,100965.53
2018-08-04T14:09:11.978Z,100956.72
2018-08-04T14:14:15.557Z,100954.59
2018-08-04T14:19:19.539Z,100949.19
2018-08-04T14:24:33.375Z,100954.49
2018-08-04T14:29:37.463Z,100950.66
2018-08-04T14:34:41.108Z,100946.66
2018-08-04T14:39:44.722Z,100950.54
2018-08-04T14:44:48.195Z,100943.06
2018-08-04T14:49:51.771Z,100943.99
2018-08-04T14:54:55.307Z,100930.55
2018-08-04T14:59:58.830Z,100935.22
2018-08-04T15:05:02.940Z,100929.56
2018-08-04T15:10:06.930Z,100930.61
2018-08-04T15:15:11.099Z,100928.28
2018-08-04T15:20:15.257Z,100927.35
2018-08-04T15:25:18.873Z,100923.86
2018-08-04T15:30:29.015Z,100921.48
2018-08-04T15:35:32.587Z,100928.53
2018-08-04T15:40:36.170Z,100920.76
2018-08-04T15:45:39.627Z,100926.40
2018-08-04T15:50:43.260Z,100923.53
2018-08-04T15:55:46.860Z,100920.58
2018-08-04T16:00:51.462Z,100919.25
2018-08-04T16:05:54.970Z,100923.02
2018-08-04T16:10:59.128Z,100918.27
2018-08-04T16:16:02.602Z,100917.56
2018-08-04T16:21:07.007Z,100921.69
2018-08-04T16:26:10.532Z,100913.16
2018-08-04T16:31:14.180Z,100918.89
2018-08-04T16:36:18.238Z,100922.20
2018-08-04T16:41:21.825Z,100923.55
2018-08-04T16:46:25.632Z,100926.74
2018-08-04T16:51:29.216Z,100924.58
2018-08-04T16:56:32.787Z,100926.08
2018-08-04T17:01:37.473Z,100936.12
2018-08-04T17:06:41.044Z,100936.66
2018-08-04T17:11:44.602Z,100935.30
2018-08-04T17:16:48.121Z,100932.27
2018-08-04T17:21:51.686Z,100946.73
2018-08-04T17:26:55.222Z,100952.33
2018-08-04T17:31:58.906Z,100954.94
2018-08-04T17:37:02.414Z,100959.00
2018-08-04T17:42:06.013Z,100956.64
2018-08-04T17:47:09.637Z,100960.33
2018-08-04T17:52:14.054Z,100957.96
2018-08-04T17:57:17.601Z,100965.37
2018-08-04T18:02:21.167Z,100975.42
2018-08-04T18:07:24.797Z,100980.94
2018-08-04T18:12:28.482Z,100983.06
2018-08-04T18:17:32.008Z,100993.28
2018-08-04T18:22:35.601Z,100989.94
2018-08-04T18:27:39.238Z,100996.14
2018-08-04T18:32:43.776Z,100989.64
2018-08-04T18:37:47.474Z,101001.37
2018-08-04T18:42:51.007Z,101004.91
2018-08-04T18:47:54.604Z,101013.61
2018-08-04T18:52:58.254Z,101020.44
2018-08-04T18:58:01.749Z,101034.23
2018-08-04T19:03:05.579Z,101035.16
2018-08-04T19:08:13.229Z,101045.69
2018-08-04T19:13:16.784Z,101048.94
2018-08-04T19:18:20.600Z,101047.23
2018-08-04T19:23:24.164Z,101066.73
2018-08-04T19:28:27.752Z,101067.81
2018-08-04T19:33:31.771Z,101078.67
2018-08-04T19:38:35.326Z,101079.58
2018-08-04T19:43:38.861Z,101086.64
2018-08-04T19:48:43.001Z,101098.83
2018-08-04T19:53:46.586Z,101098.70
2018-08-04T19:58:50.171Z,101106.66
2018-08-04T20:03:53.735Z,101109.09
2018-08-04T20:08:57.416Z,101105.48
2018-08-04T20:14:01.270Z,101116.70
2018-08-04T20:19:04.808Z,101117.44
2018-08-04T20:24:08.397Z,101127.63
2018-08-04T20:29:12.067Z,101137.17
2018-08-04T20:34:15.617Z,101128.77
2018-08-04T20:39:19.138Z,101127.89
2018-08-04T20:44:22.734Z,101127.25
2018-08-04T20:49:26.530Z,101131.21
2018-08-04T20:54:30.627Z,101139.23
2018-08-04T20:59:34.294Z,101144.16
2018-08-04T21:04:37.881Z,101149.22
2018-08-04T21:09:41.490Z,101153.62
2018-08-04T21:14:45.138Z,101157.52
2018-08-04T21:19:48.639Z,101158.98
2018-08-04T21:24:52.314Z,101163.42
2018-08-04T21:29:56.121Z,101158.45
2018-08-04T21:34:59.660Z,101169.73
2018-08-04T21:40:03.287Z,101172.08
2018-08-04T21:45:07.755Z,101171.58
2018-08-04T21:50:11.419Z,101173.18
2018-08-04T21:55:15.763Z,101172.58
2018-08-04T22:00:28.673Z,101180.05
2018-08-04T22:05:32.267Z,101186.66
2018-08-04T22:10:35.787Z,101185.27
2018-08-04T22:15:40.587Z,101187.42
2018-08-04T22:20:44.323Z,101181.87
2018-08-04T22:25:48.041Z,101187.36
2018-08-04T22:30:51.687Z,101185.25
2018-08-04T22:35:55.405Z,101186.27
2018-08-04T22:40:59.764Z,101189.80
2018-08-04T22:46:05.231Z,101199.13
2018-08-04T22:51:08.891Z,101202.05
2018-08-04T22:56:13.731Z,101198.86
2018-08-04T23:01:18.108Z,101206.03
2018-08-04T23:06:21.836Z,101201.91
2018-08-04T23:11:25.748Z,101205.21
2018-08-04T23:16:29.428Z,101208.72
2018-08-04T23:21:33.019Z,101214.44
2018-08-04T23:26:36.547Z,101215.08
2018-08-04T23:31:40.367Z,101228.45
2018-08-04T23:36:43.965Z,101238.13
2018-08-04T23:41:47.567Z,101232.45
2018-08-04T23:46:51.141Z,101237.22
2018-08-04T23:51:54.826Z,101243.35
2018-08-04T23:56:58.383Z,101251.34
